createdAt,value
2022-12-01T00:00:31.020Z,105.60
2022-12-01T00:01:30.853Z,100.50
2022-12-01T00:02:31.032Z,104.00
2022-12-01T00:03:30.909Z,99.50
2022-12-01T00:04:30.876Z,105.90
2022-12-01T00:05:30.887Z,115.90
2022-12-01T00:06:30.832Z,116.20
2022-12-01T00:07:30.932Z,121.40
2022-12-01T00:08:30.830Z,115.90
2022-12-01T00:09:30.797Z,120.30
2022-12-01T00:10:30.810Z,126.20
2022-12-01T00:11:30.800Z,120.40
2022-12-01T00:12:30.919Z,123.70
2022-12-01T00:13:30.798Z,124.70
2022-12-01T00:14:30.801Z,127.70
2022-12-01T00:15:30.804Z,125.80
2022-12-01T00:16:30.929Z,117.40
2022-12-01T00:17:30.777Z,121.30
2022-12-01T00:18:30.847Z,125.60
2022-12-01T00:19:30.755Z,123.10
2022-12-01T00:20:30.767Z,114.70
2022-12-01T00:21:30.733Z,128.60
2022-12-01T00:22:30.761Z,128.10
2022-12-01T00:23:30.760Z,129.70
2022-12-01T00:24:30.859Z,127.90
2022-12-01T00:25:30.722Z,124.90
2022-12-01T00:26:30.733Z,122.50
2022-12-01T00:27:30.761Z,120.50
2022-12-01T00:28:30.738Z,126.10
2022-12-01T00:29:30.760Z,121.90
2022-12-01T00:30:30.756Z,119.10
2022-12-01T00:31:30.769Z,116.60
2022-12-01T00:32:31.263Z,118.00
2022-12-01T00:33:30.723Z,120.30
2022-12-01T00:34:30.716Z,130.30
2022-12-01T00:35:30.721Z,118.00
2022-12-01T00:36:30.819Z,130.90
2022-12-01T00:37:30.715Z,121.00
2022-12-01T00:38:30.756Z,126.50
2022-12-01T00:39:30.679Z,123.70
2022-12-01T00:40:30.697Z,119.20
2022-12-01T00:41:30.675Z,131.50
2022-12-01T00:44:24.712Z,131.20
2022-12-01T00:45:24.602Z,124.30
2022-12-01T00:46:30.607Z,124.60
2022-12-01T00:47:30.627Z,125.30
2022-12-01T00:48:30.616Z,122.90
2022-12-01T00:49:30.707Z,123.50
2022-12-01T00:50:30.541Z,120.40
2022-12-01T00:51:30.561Z,119.50
2022-12-01T00:52:30.513Z,131.80
2022-12-01T00:53:30.529Z,123.40
2022-12-01T00:54:30.494Z,125.90
2022-12-01T00:55:30.515Z,128.50
2022-12-01T00:56:30.470Z,127.40
2022-12-01T00:57:30.478Z,119.20
2022-12-01T00:58:30.494Z,118.90
2022-12-01T00:59:30.479Z,122.20
2022-12-01T01:00:30.458Z,126.30
2022-12-01T01:01:30.487Z,124.70
2022-12-01T01:02:30.542Z,126.90
2022-12-01T01:03:30.449Z,120.60
2022-12-01T01:04:30.409Z,126.80
2022-12-01T01:05:30.431Z,124.10
2022-12-01T01:06:30.386Z,158.20
2022-12-01T01:07:36.556Z,108.30
2022-12-01T01:08:36.417Z,112.60
2022-12-01T01:09:36.379Z,113.50
2022-12-01T01:10:36.492Z,112.80
2022-12-01T01:11:36.379Z,119.80
2022-12-01T01:12:36.383Z,119.80
2022-12-01T01:13:36.370Z,127.00
2022-12-01T01:14:36.362Z,110.90
2022-12-01T01:15:36.353Z,119.90
2022-12-01T01:16:36.388Z,124.60
2022-12-01T01:17:36.331Z,117.00
2022-12-01T01:18:36.343Z,118.30
2022-12-01T01:19:36.323Z,112.80
2022-12-01T01:20:36.334Z,106.00
2022-12-01T01:21:36.351Z,103.80
2022-12-01T01:22:36.346Z,103.00
2022-12-01T01:23:36.336Z,104.50
2022-12-01T01:24:36.383Z,109.40
2022-12-01T01:25:36.337Z,109.60
2022-12-01T01:26:36.342Z,115.50
2022-12-01T01:27:36.746Z,112.20
2022-12-01T01:28:36.332Z,108.30
2022-12-01T01:29:36.330Z,104.70
2022-12-01T01:30:36.367Z,116.20
2022-12-01T01:31:36.307Z,111.70
2022-12-01T01:32:36.332Z,111.80
2022-12-01T01:33:36.306Z,121.80
2022-12-01T01:34:36.299Z,106.80
2022-12-01T01:35:36.276Z,112.70
2022-12-01T01:36:36.295Z,130.60
2022-12-01T01:37:36.261Z,117.90
2022-12-01T01:38:36.270Z,115.30
2022-12-01T01:39:36.256Z,126.90
2022-12-01T01:40:36.254Z,132.30
2022-12-01T01:41:36.254Z,130.10
2022-12-01T01:42:36.259Z,128.50
2022-12-01T01:43:36.355Z,131.10
2022-12-01T01:44:36.217Z,132.80
2022-12-01T01:45:36.240Z,140.80
2022-12-01T01:46:36.209Z,134.80
2022-12-01T01:47:36.161Z,131.20
2022-12-01T01:48:36.209Z,141.80
2022-12-01T01:49:36.138Z,135.80
2022-12-01T01:50:36.146Z,129.40
2022-12-01T01:51:36.106Z,133.30
2022-12-01T01:52:36.102Z,141.20
2022-12-01T01:53:36.057Z,144.50
2022-12-01T01:54:36.210Z,136.30
2022-12-01T01:55:36.020Z,146.20
2022-12-01T01:56:36.034Z,148.90
2022-12-01T01:57:35.995Z,147.60
2022-12-01T01:58:35.985Z,157.10
2022-12-01T01:59:35.979Z,144.90
2022-12-01T02:00:36.055Z,139.60
2022-12-01T02:01:36.022Z,147.60
2022-12-01T02:02:36.497Z,140.30
2022-12-01T02:03:35.934Z,135.20
2022-12-01T02:04:35.924Z,146.60
2022-12-01T02:05:36.163Z,154.20
2022-12-01T02:06:35.939Z,142.80
2022-12-01T02:07:35.981Z,139.80
2022-12-01T02:08:40.800Z,150.40
2022-12-01T02:09:40.896Z,146.00
2022-12-01T02:10:40.933Z,145.60
2022-12-01T02:11:41.018Z,144.30
2022-12-01T02:12:40.882Z,151.60
2022-12-01T02:13:40.898Z,152.10
2022-12-01T02:14:40.892Z,157.70
2022-12-01T02:15:41.040Z,149.40
2022-12-01T02:16:40.920Z,140.90
2022-12-01T02:17:42.015Z,139.30
2022-12-01T02:18:40.870Z,138.60
2022-12-01T02:19:40.906Z,141.70
2022-12-01T02:20:40.875Z,146.10
2022-12-01T02:21:40.962Z,138.00
2022-12-01T02:22:40.925Z,129.50
2022-12-01T02:23:40.944Z,134.80
2022-12-01T02:24:40.909Z,123.00
2022-12-01T02:25:40.890Z,133.40
2022-12-01T02:26:40.909Z,149.70
2022-12-01T02:27:40.889Z,138.00
2022-12-01T02:28:40.860Z,127.50
2022-12-01T02:29:40.886Z,132.40
2022-12-01T02:30:40.950Z,129.60
2022-12-01T02:31:40.891Z,118.50
2022-12-01T02:32:40.840Z,217.30
2022-12-01T02:33:40.840Z,175.80
2022-12-01T02:34:40.818Z,124.80
2022-12-01T02:35:40.940Z,130.70
2022-12-01T02:36:40.776Z,126.80
2022-12-01T02:37:40.831Z,127.00
2022-12-01T02:38:40.791Z,113.20
2022-12-01T02:39:40.748Z,118.40
2022-12-01T02:40:40.746Z,125.60
2022-12-01T02:41:40.766Z,113.50
2022-12-01T02:42:40.749Z,123.10
2022-12-01T02:43:40.730Z,115.60
2022-12-01T02:44:40.701Z,117.70
2022-12-01T02:45:40.799Z,125.40
2022-12-01T02:46:40.709Z,125.10
2022-12-01T02:47:40.746Z,115.90
2022-12-01T02:48:40.739Z,122.60
2022-12-01T02:49:40.677Z,122.10
2022-12-01T02:50:40.672Z,133.20
2022-12-01T02:51:40.685Z,118.90
2022-12-01T02:52:40.645Z,120.00
2022-12-01T02:53:40.716Z,125.30
2022-12-01T02:54:40.637Z,119.80
2022-12-01T02:55:40.653Z,118.70
2022-12-01T02:56:40.616Z,124.00
2022-12-01T02:57:40.634Z,114.30
2022-12-01T02:58:40.609Z,113.90
2022-12-01T02:59:40.789Z,120.00
2022-12-01T03:00:40.632Z,120.90
2022-12-01T03:01:40.690Z,120.30
2022-12-01T03:02:40.674Z,120.50
2022-12-01T03:03:40.613Z,113.60
2022-12-01T03:04:40.570Z,114.20
2022-12-01T03:05:40.615Z,128.10
2022-12-01T03:06:40.571Z,110.10
2022-12-01T03:07:40.755Z,117.50
2022-12-01T03:08:44.423Z,115.50
2022-12-01T03:09:44.615Z,119.70
2022-12-01T03:10:44.563Z,119.40
2022-12-01T03:11:44.479Z,122.90
2022-12-01T03:12:44.492Z,117.90
2022-12-01T03:13:44.453Z,118.50
2022-12-01T03:14:44.464Z,111.10
2022-12-01T03:15:44.500Z,118.20
2022-12-01T03:16:44.462Z,109.20
2022-12-01T03:17:44.394Z,107.80
2022-12-01T03:18:44.390Z,106.90
2022-12-01T03:19:44.355Z,119.20
2022-12-01T03:20:44.411Z,140.10
2022-12-01T03:21:44.326Z,135.70
2022-12-01T03:22:44.354Z,139.40
2022-12-01T03:23:44.322Z,112.00
2022-12-01T03:24:44.312Z,102.00
2022-12-01T03:25:44.250Z,106.90
2022-12-01T03:26:44.268Z,122.00
2022-12-01T03:28:00.702Z,120.60
2022-12-01T03:28:44.258Z,121.10
2022-12-01T03:29:44.184Z,123.50
2022-12-01T03:30:44.186Z,114.80
2022-12-01T03:31:44.265Z,120.60
2022-12-01T03:32:44.166Z,126.80
2022-12-01T03:33:44.133Z,116.80
2022-12-01T03:34:44.252Z,154.80
2022-12-01T03:35:44.091Z,110.50
2022-12-01T03:36:44.102Z,106.40
2022-12-01T03:37:44.057Z,107.20
2022-12-01T03:38:44.068Z,105.70
2022-12-01T03:39:44.053Z,101.50
2022-12-01T03:40:44.089Z,104.50
2022-12-01T03:41:44.018Z,109.60
2022-12-01T03:42:44.067Z,116.50
2022-12-01T03:43:44.008Z,112.80
2022-12-01T03:44:43.995Z,116.50
2022-12-01T03:45:43.970Z,122.00
2022-12-01T03:46:44.189Z,112.00
2022-12-01T03:47:43.947Z,110.80
2022-12-01T03:48:43.963Z,121.50
2022-12-01T03:49:43.938Z,125.20
2022-12-01T03:50:43.963Z,209.50
2022-12-01T03:51:43.950Z,106.30
2022-12-01T03:52:44.084Z,104.40
2022-12-01T03:53:44.041Z,108.70
2022-12-01T03:54:43.913Z,114.30
2022-12-01T03:55:43.885Z,106.90
2022-12-01T03:56:43.880Z,107.50
2022-12-01T03:57:43.865Z,110.10
2022-12-01T03:58:43.911Z,114.40
2022-12-01T03:59:43.862Z,115.30
2022-12-01T04:00:43.853Z,111.60
2022-12-01T04:01:43.837Z,112.50
2022-12-01T04:02:43.883Z,112.40
2022-12-01T04:03:43.801Z,116.00
2022-12-01T04:04:43.855Z,118.80
2022-12-01T04:05:43.771Z,112.10
2022-12-01T04:06:43.767Z,105.20
2022-12-01T04:07:43.827Z,111.20
2022-12-01T04:08:43.747Z,110.30
2022-12-01T04:09:43.715Z,116.40
2022-12-01T04:10:43.952Z,115.20
2022-12-01T04:11:43.674Z,118.50
2022-12-01T04:12:43.703Z,111.70
2022-12-01T04:13:43.656Z,104.40
2022-12-01T04:14:43.667Z,115.50
2022-12-01T04:15:43.694Z,108.60
2022-12-01T04:16:43.615Z,113.60
2022-12-01T04:17:43.572Z,126.70
2022-12-01T04:18:43.562Z,128.50
2022-12-01T04:19:43.647Z,119.80
2022-12-01T04:20:43.518Z,113.60
2022-12-01T04:21:43.490Z,119.10
2022-12-01T04:22:43.480Z,122.40
2022-12-01T04:23:43.442Z,132.70
2022-12-01T04:24:43.974Z,122.80
2022-12-01T04:25:43.523Z,115.70
2022-12-01T04:26:43.437Z,121.90
2022-12-01T04:27:43.398Z,113.20
2022-12-01T04:28:43.400Z,122.10
2022-12-01T04:29:43.371Z,129.00
2022-12-01T04:30:43.363Z,133.80
2022-12-01T04:31:43.498Z,130.40
2022-12-01T04:32:43.389Z,130.80
2022-12-01T04:33:43.301Z,128.70
2022-12-01T04:34:43.294Z,131.40
2022-12-01T04:35:43.318Z,119.20
2022-12-01T04:36:43.261Z,126.60
2022-12-01T04:37:43.237Z,126.10
2022-12-01T04:38:43.255Z,133.70
2022-12-01T04:39:43.216Z,134.50
2022-12-01T04:40:43.203Z,135.40
2022-12-01T04:41:43.152Z,124.40
2022-12-01T04:42:43.147Z,132.50
2022-12-01T04:43:43.133Z,122.80
2022-12-01T04:44:43.138Z,135.00
2022-12-01T04:45:43.080Z,132.50
2022-12-01T04:46:48.211Z,144.50
2022-12-01T04:47:48.078Z,136.60
2022-12-01T04:48:48.195Z,137.40
2022-12-01T04:49:48.314Z,155.60
2022-12-01T04:50:48.000Z,133.90
2022-12-01T04:51:48.013Z,147.20
2022-12-01T04:52:47.989Z,101.20
2022-12-01T04:53:47.982Z,106.10
2022-12-01T04:54:47.968Z,94.20
2022-12-01T04:55:47.984Z,96.10
2022-12-01T04:56:47.935Z,109.70
2022-12-01T04:57:48.064Z,114.70
2022-12-01T04:58:47.883Z,111.60
2022-12-01T04:59:48.387Z,108.90
2022-12-01T05:00:47.981Z,113.90
2022-12-01T05:01:48.448Z,106.70
2022-12-01T05:02:47.845Z,108.90
2022-12-01T05:03:52.783Z,115.20
2022-12-01T05:04:52.874Z,130.90
2022-12-01T05:05:52.966Z,121.20
2022-12-01T05:08:46.829Z,111.80
2022-12-01T05:09:47.071Z,115.00
2022-12-01T05:10:46.769Z,114.90
2022-12-01T05:11:46.732Z,129.00
2022-12-01T05:12:46.736Z,121.30
2022-12-01T05:13:46.671Z,117.80
2022-12-01T05:14:46.690Z,118.10
2022-12-01T05:15:46.636Z,122.80
2022-12-01T05:16:46.696Z,126.20
2022-12-01T05:17:46.658Z,120.70
2022-12-01T05:18:46.636Z,125.10
2022-12-01T05:19:46.974Z,123.30
2022-12-01T05:20:46.606Z,124.40
2022-12-01T05:21:46.556Z,126.10
2022-12-01T05:23:04.867Z,111.30
2022-12-01T05:23:46.577Z,124.80
2022-12-01T05:24:46.547Z,134.50
2022-12-01T05:25:46.506Z,135.60
2022-12-01T05:26:46.512Z,135.40
2022-12-01T05:27:46.497Z,134.00
2022-12-01T05:28:46.506Z,124.30
2022-12-01T05:29:46.875Z,122.90
2022-12-01T05:30:46.504Z,127.20
2022-12-01T05:31:46.504Z,131.50
2022-12-01T05:32:46.461Z,138.20
2022-12-01T05:33:46.436Z,136.60
2022-12-01T05:34:46.458Z,126.80
2022-12-01T05:35:46.564Z,131.50
2022-12-01T05:36:46.412Z,123.40
2022-12-01T05:37:46.410Z,131.70
2022-12-01T05:38:46.395Z,124.00
2022-12-01T05:39:46.724Z,133.60
2022-12-01T05:40:46.410Z,129.90
2022-12-01T05:41:46.477Z,130.80
2022-12-01T05:42:46.365Z,129.70
2022-12-01T05:43:46.341Z,134.20
2022-12-01T05:44:46.365Z,139.40
2022-12-01T05:45:46.379Z,121.40
2022-12-01T05:46:51.237Z,137.10
2022-12-01T05:47:51.283Z,134.50
2022-12-01T05:48:51.251Z,130.70
2022-12-01T05:49:51.554Z,137.30
2022-12-01T05:50:51.247Z,144.50
2022-12-01T05:51:55.247Z,131.20
2022-12-01T05:52:55.204Z,137.30
2022-12-01T05:53:55.151Z,133.70
2022-12-01T05:54:55.137Z,141.30
2022-12-01T05:55:55.200Z,132.90
2022-12-01T05:57:59.966Z,132.70
2022-12-01T05:59:00.059Z,141.30
2022-12-01T06:00:00.112Z,135.00
2022-12-01T06:01:00.033Z,156.70
2022-12-01T06:02:00.157Z,154.20
2022-12-01T06:03:00.022Z,153.70
2022-12-01T06:04:00.164Z,146.90
2022-12-01T06:04:59.967Z,154.60
2022-12-01T06:05:59.957Z,144.10
2022-12-01T06:06:59.970Z,146.00
2022-12-01T06:07:59.976Z,145.80
2022-12-01T06:09:00.008Z,148.10
2022-12-01T06:09:59.887Z,145.30
2022-12-01T06:10:59.845Z,157.50
2022-12-01T06:11:59.819Z,154.40
2022-12-01T06:12:59.799Z,152.00
2022-12-01T06:13:59.767Z,146.90
2022-12-01T06:14:59.779Z,184.40
2022-12-01T06:15:59.743Z,172.20
2022-12-01T06:16:59.816Z,152.20
2022-12-01T06:17:59.668Z,136.80
2022-12-01T06:18:59.696Z,159.30
2022-12-01T06:19:59.648Z,160.80
2022-12-01T06:20:59.739Z,150.00
2022-12-01T06:21:59.608Z,158.80
2022-12-01T06:22:59.650Z,160.70
2022-12-01T06:23:59.573Z,152.60
2022-12-01T06:24:59.998Z,146.80
2022-12-01T06:25:59.556Z,147.10
2022-12-01T06:26:59.593Z,152.90
2022-12-01T06:27:59.688Z,146.90
2022-12-01T06:28:59.550Z,146.10
2022-12-01T06:29:59.517Z,149.50
2022-12-01T06:31:03.143Z,157.10
2022-12-01T06:31:59.552Z,157.20
2022-12-01T06:32:59.633Z,150.10
2022-12-01T06:33:59.481Z,141.60
2022-12-01T06:34:59.453Z,159.70
2022-12-01T06:35:59.423Z,147.70
2022-12-01T06:36:59.411Z,162.50
2022-12-01T06:37:59.369Z,156.10
2022-12-01T06:38:59.532Z,158.30
2022-12-01T06:39:59.342Z,146.60
2022-12-01T06:40:59.366Z,147.10
2022-12-01T06:41:59.319Z,148.50
2022-12-01T06:42:59.322Z,145.70
2022-12-01T06:43:59.296Z,144.80
2022-12-01T06:44:59.312Z,144.80
2022-12-01T06:46:02.058Z,141.30
2022-12-01T06:46:59.268Z,144.40
2022-12-01T06:47:59.237Z,154.80
2022-12-01T06:48:59.233Z,149.00
2022-12-01T06:49:59.238Z,157.00
2022-12-01T06:50:59.360Z,157.80
2022-12-01T06:52:00.953Z,138.70
2022-12-01T06:52:59.456Z,144.90
2022-12-01T06:54:05.050Z,132.10
2022-12-01T06:54:59.193Z,136.80
2022-12-01T06:55:59.164Z,129.80
2022-12-01T06:56:59.210Z,144.40
2022-12-01T06:57:59.143Z,153.50
2022-12-01T06:58:59.165Z,149.00
2022-12-01T06:59:59.160Z,157.50
2022-12-01T07:00:59.415Z,153.20
2022-12-01T07:01:59.215Z,150.60
2022-12-01T07:02:59.328Z,144.40
2022-12-01T07:03:59.089Z,155.80
2022-12-01T07:05:04.979Z,158.20
2022-12-01T07:06:10.988Z,151.10
2022-12-01T07:07:11.103Z,162.00
2022-12-01T07:08:11.175Z,152.30
2022-12-01T07:09:11.057Z,155.10
2022-12-01T07:10:11.046Z,147.20
2022-12-01T07:11:11.168Z,147.30
2022-12-01T07:12:11.045Z,148.50
2022-12-01T07:13:11.041Z,163.10
2022-12-01T07:14:11.022Z,151.20
2022-12-01T07:15:11.059Z,164.80
2022-12-01T07:16:11.040Z,176.40
2022-12-01T07:17:11.090Z,160.30
2022-12-01T07:18:10.975Z,155.60
2022-12-01T07:19:10.995Z,152.00
2022-12-01T07:20:11.021Z,149.80
2022-12-01T07:21:11.087Z,160.10
2022-12-01T07:22:11.100Z,157.50
2022-12-01T07:23:10.985Z,157.20
2022-12-01T07:24:10.988Z,148.80
2022-12-01T07:25:11.048Z,159.60
2022-12-01T07:26:11.006Z,162.80
2022-12-01T07:27:11.129Z,152.60
2022-12-01T07:28:10.950Z,147.80
2022-12-01T07:29:11.006Z,156.20
2022-12-01T07:30:10.952Z,162.80
2022-12-01T07:31:11.082Z,145.80
2022-12-01T07:32:10.938Z,149.40
2022-12-01T07:33:11.093Z,150.90
2022-12-01T07:34:10.918Z,146.20
2022-12-01T07:35:10.949Z,152.20
2022-12-01T07:36:10.933Z,155.10
2022-12-01T07:37:11.117Z,143.10
2022-12-01T07:38:10.982Z,152.90
2022-12-01T07:39:16.848Z,156.30
2022-12-01T07:40:16.951Z,151.00
2022-12-01T07:41:16.925Z,151.00
2022-12-01T07:42:16.925Z,148.20
2022-12-01T07:43:16.921Z,158.00
2022-12-01T07:44:17.043Z,150.30
2022-12-01T07:45:16.906Z,149.40
2022-12-01T07:46:22.228Z,150.10
2022-12-01T07:47:16.881Z,153.00
2022-12-01T07:48:16.911Z,149.20
2022-12-01T07:49:16.854Z,140.10
2022-12-01T07:50:16.989Z,132.90
2022-12-01T07:51:16.892Z,121.50
2022-12-01T07:52:16.882Z,136.80
2022-12-01T07:53:16.851Z,92.60
2022-12-01T07:54:16.882Z,157.70
2022-12-01T07:55:16.829Z,148.70
2022-12-01T07:56:16.890Z,142.20
2022-12-01T07:57:16.832Z,147.50
2022-12-01T07:58:16.856Z,152.60
2022-12-01T07:59:17.236Z,143.20
2022-12-01T08:00:16.839Z,155.50
2022-12-01T08:01:16.870Z,152.60
2022-12-01T08:02:17.114Z,160.30
2022-12-01T08:03:16.863Z,150.50
2022-12-01T08:04:16.834Z,153.20
2022-12-01T08:05:16.833Z,141.20
2022-12-01T08:06:16.809Z,142.90
2022-12-01T08:07:16.782Z,135.90
2022-12-01T08:08:16.986Z,142.70
2022-12-01T08:09:16.752Z,131.70
2022-12-01T08:10:16.774Z,141.00
2022-12-01T08:11:16.743Z,152.00
2022-12-01T08:12:16.756Z,149.70
2022-12-01T08:13:17.558Z,148.40
2022-12-01T08:14:16.859Z,143.50
2022-12-01T08:15:16.715Z,149.10
2022-12-01T08:16:16.846Z,148.90
2022-12-01T08:17:16.683Z,147.70
2022-12-01T08:18:20.625Z,141.00
2022-12-01T08:19:20.848Z,147.10
2022-12-01T08:20:23.874Z,142.30
2022-12-01T08:21:20.666Z,113.80
2022-12-01T08:22:20.630Z,144.90
2022-12-01T08:23:20.655Z,145.20
2022-12-01T08:24:20.653Z,142.50
2022-12-01T08:25:20.798Z,152.50
2022-12-01T08:26:20.698Z,140.90
2022-12-01T08:27:20.609Z,144.50
2022-12-01T08:28:20.588Z,145.80
2022-12-01T08:29:20.692Z,143.50
2022-12-01T08:30:20.553Z,146.90
2022-12-01T08:31:20.684Z,143.30
2022-12-01T08:32:20.495Z,147.40
2022-12-01T08:33:20.494Z,145.60
2022-12-01T08:34:20.472Z,155.70
2022-12-01T08:35:20.482Z,156.70
2022-12-01T08:36:20.437Z,136.70
2022-12-01T08:37:20.463Z,162.30
2022-12-01T08:38:20.374Z,141.30
2022-12-01T08:39:20.393Z,149.10
2022-12-01T08:40:20.339Z,147.30
2022-12-01T08:41:20.348Z,141.50
2022-12-01T08:42:20.316Z,144.60
2022-12-01T08:43:49.570Z,140.10
2022-12-01T08:44:20.369Z,142.30
2022-12-01T08:45:20.256Z,135.00
2022-12-01T08:46:20.317Z,136.50
2022-12-01T08:47:20.238Z,140.20
2022-12-01T08:48:20.299Z,133.10
2022-12-01T08:49:20.229Z,139.10
2022-12-01T08:50:20.185Z,136.50
2022-12-01T08:51:20.193Z,137.10
2022-12-01T08:52:20.143Z,135.30
2022-12-01T08:53:20.188Z,131.60
2022-12-01T08:54:20.099Z,136.50
2022-12-01T08:55:20.113Z,132.80
2022-12-01T08:56:20.040Z,137.50
2022-12-01T08:57:20.053Z,139.80
2022-12-01T08:58:20.039Z,133.10
2022-12-01T08:59:20.144Z,144.00
2022-12-01T09:00:20.001Z,137.50
2022-12-01T09:01:20.108Z,129.60
2022-12-01T09:02:20.065Z,135.10
2022-12-01T09:03:25.901Z,138.90
2022-12-01T09:04:25.996Z,129.60
2022-12-01T09:05:25.985Z,135.70
2022-12-01T09:06:26.035Z,136.20
2022-12-01T09:07:26.685Z,136.70
2022-12-01T09:08:25.996Z,132.60
2022-12-01T09:09:26.121Z,131.60
2022-12-01T09:10:26.000Z,125.80
2022-12-01T09:11:25.960Z,129.80
2022-12-01T09:12:26.004Z,135.10
2022-12-01T09:13:25.945Z,125.80
2022-12-01T09:14:25.968Z,132.30
2022-12-01T09:15:25.927Z,135.70
2022-12-01T09:16:26.052Z,127.80
2022-12-01T09:17:25.919Z,134.00
2022-12-01T09:18:25.925Z,130.80
2022-12-01T09:19:25.890Z,133.60
2022-12-01T09:20:25.913Z,129.80
2022-12-01T09:21:25.858Z,128.60
2022-12-01T09:22:25.870Z,126.90
2022-12-01T09:23:25.845Z,126.50
2022-12-01T09:24:25.996Z,130.10
2022-12-01T09:25:25.843Z,134.40
2022-12-01T09:26:25.837Z,132.10
2022-12-01T09:27:25.807Z,138.60
2022-12-01T09:28:25.819Z,128.40
2022-12-01T09:29:25.811Z,125.90
2022-12-01T09:30:25.944Z,123.40
2022-12-01T09:33:19.846Z,123.50
2022-12-01T09:34:19.787Z,130.20
2022-12-01T09:35:23.385Z,122.00
2022-12-01T09:36:25.699Z,130.20
2022-12-01T09:37:25.715Z,125.70
2022-12-01T09:38:25.696Z,129.10
2022-12-01T09:39:25.730Z,149.90
2022-12-01T09:40:25.722Z,129.60
2022-12-01T09:41:25.683Z,126.90
2022-12-01T09:42:28.384Z,128.50
2022-12-01T09:43:25.714Z,128.00
2022-12-01T09:44:25.722Z,128.40
2022-12-01T09:45:25.652Z,130.00
2022-12-01T09:46:25.681Z,124.30
2022-12-01T09:47:25.651Z,125.50
2022-12-01T09:48:25.589Z,128.70
2022-12-01T09:49:25.597Z,132.60
2022-12-01T09:50:25.677Z,126.70
2022-12-01T09:51:25.599Z,132.80
2022-12-01T09:52:25.582Z,128.00
2022-12-01T09:53:25.568Z,125.10
2022-12-01T09:54:25.674Z,125.10
2022-12-01T09:55:25.575Z,128.90
2022-12-01T09:56:25.580Z,121.30
2022-12-01T09:57:25.565Z,129.10
2022-12-01T09:58:25.535Z,119.30
2022-12-01T09:59:25.574Z,121.40
2022-12-01T10:00:25.564Z,124.60
2022-12-01T10:01:27.433Z,123.10
2022-12-01T10:02:25.693Z,126.90
2022-12-01T10:03:25.549Z,134.30
2022-12-01T10:04:25.520Z,135.70
2022-12-01T10:05:25.782Z,120.00
2022-12-01T10:06:27.813Z,126.40
2022-12-01T10:07:25.595Z,125.00
2022-12-01T10:08:27.087Z,123.10
2022-12-01T10:09:25.535Z,129.60
2022-12-01T10:10:25.520Z,132.90
2022-12-01T10:11:30.446Z,122.20
2022-12-01T10:12:30.538Z,135.20
2022-12-01T10:13:30.633Z,122.50
2022-12-01T10:14:30.509Z,127.90
2022-12-01T10:15:30.635Z,124.40
2022-12-01T10:16:30.590Z,125.90
2022-12-01T10:17:30.476Z,142.60
2022-12-01T10:18:30.588Z,132.70
2022-12-01T10:19:30.592Z,130.50
2022-12-01T10:20:30.507Z,128.10
2022-12-01T10:21:30.482Z,129.00
2022-12-01T10:22:30.497Z,131.40
2022-12-01T10:23:30.564Z,127.60
2022-12-01T10:24:30.499Z,127.70
2022-12-01T10:25:30.497Z,132.30
2022-12-01T10:26:30.681Z,137.10
2022-12-01T10:27:30.431Z,132.70
2022-12-01T10:28:30.497Z,131.50
2022-12-01T10:29:30.425Z,135.80
2022-12-01T10:30:34.478Z,123.80
2022-12-01T10:31:34.553Z,133.30
2022-12-01T10:32:34.429Z,126.60
2022-12-01T10:33:34.448Z,134.50
2022-12-01T10:34:34.407Z,138.20
2022-12-01T10:35:38.348Z,135.10
2022-12-01T10:36:38.558Z,132.90
2022-12-01T10:37:38.477Z,129.00
2022-12-01T10:38:38.411Z,132.20
2022-12-01T10:39:38.395Z,129.90
2022-12-01T10:40:38.563Z,124.90
2022-12-01T10:41:38.375Z,132.20
2022-12-01T10:42:38.403Z,127.40
2022-12-01T10:43:38.378Z,126.40
2022-12-01T10:44:38.405Z,128.80
2022-12-01T10:45:38.443Z,138.70
2022-12-01T10:46:38.570Z,126.80
2022-12-01T10:47:38.401Z,136.10
2022-12-01T10:48:38.414Z,125.40
2022-12-01T10:49:38.420Z,124.50
2022-12-01T10:50:38.412Z,126.30
2022-12-01T10:51:38.395Z,129.20
2022-12-01T10:52:38.553Z,131.20
2022-12-01T10:53:38.384Z,131.40
2022-12-01T10:54:38.422Z,129.20
2022-12-01T10:55:41.944Z,135.80
2022-12-01T10:56:38.418Z,135.80
2022-12-01T10:57:38.381Z,125.40
2022-12-01T10:58:38.559Z,128.40
2022-12-01T10:59:38.382Z,133.40
2022-12-01T11:00:59.145Z,123.80
2022-12-01T11:01:38.537Z,131.50
2022-12-01T11:02:38.552Z,128.40
2022-12-01T11:03:38.579Z,130.50
2022-12-01T11:04:38.429Z,129.20
2022-12-01T11:05:38.410Z,126.40
2022-12-01T11:06:38.407Z,133.90
2022-12-01T11:07:38.468Z,128.30
2022-12-01T11:08:38.401Z,131.40
2022-12-01T11:09:38.385Z,133.50
2022-12-01T11:10:38.407Z,135.70
2022-12-01T11:11:38.373Z,139.70
2022-12-01T11:12:38.421Z,122.40
2022-12-01T11:13:38.359Z,133.30
2022-12-01T11:14:38.388Z,131.30
2022-12-01T11:15:38.367Z,126.70
2022-12-01T11:16:38.583Z,125.90
2022-12-01T11:17:38.376Z,128.70
2022-12-01T11:18:38.449Z,132.80
2022-12-01T11:19:38.574Z,128.80
2022-12-01T11:20:43.622Z,128.10
2022-12-01T11:21:43.388Z,121.10
2022-12-01T11:22:43.356Z,130.70
2022-12-01T11:23:43.381Z,125.40
2022-12-01T11:24:43.351Z,131.60
2022-12-01T11:25:43.373Z,130.00
2022-12-01T11:26:43.338Z,123.10
2022-12-01T11:27:43.385Z,127.80
2022-12-01T11:28:43.326Z,130.30
2022-12-01T11:29:43.380Z,127.10
2022-12-01T11:30:43.344Z,128.80
2022-12-01T11:31:43.490Z,128.20
2022-12-01T11:32:43.321Z,122.30
2022-12-01T11:33:43.447Z,130.10
2022-12-01T11:34:43.309Z,123.60
2022-12-01T11:35:43.337Z,127.20
2022-12-01T11:36:43.735Z,124.40
2022-12-01T11:37:46.948Z,128.50
2022-12-01T11:38:43.296Z,122.30
2022-12-01T11:39:43.327Z,115.60
2022-12-01T11:40:43.329Z,126.50
2022-12-01T11:41:43.311Z,126.40
2022-12-01T11:42:43.323Z,122.00
2022-12-01T11:43:46.758Z,122.60
2022-12-01T11:44:51.471Z,115.00
2022-12-01T11:45:43.477Z,120.90
2022-12-01T11:46:50.359Z,127.40
2022-12-01T11:47:43.323Z,122.00
2022-12-01T11:48:43.275Z,121.90
2022-12-01T11:49:48.730Z,121.20
2022-12-01T11:50:48.292Z,118.90
2022-12-01T11:51:48.246Z,123.40
2022-12-01T11:52:48.414Z,119.10
2022-12-01T11:53:48.241Z,116.80
2022-12-01T11:54:48.277Z,128.60
2022-12-01T11:55:48.270Z,123.00
2022-12-01T11:56:56.149Z,122.90
2022-12-01T11:57:48.253Z,124.70
2022-12-01T11:58:48.303Z,119.10
2022-12-01T11:59:48.565Z,123.30
2022-12-01T12:00:48.275Z,122.30
2022-12-01T12:01:48.259Z,117.10
2022-12-01T12:02:48.376Z,123.90
2022-12-01T12:03:48.395Z,117.20
2022-12-01T12:04:48.278Z,115.10
2022-12-01T12:05:48.249Z,117.20
2022-12-01T12:06:48.251Z,121.60
2022-12-01T12:07:48.307Z,111.70
2022-12-01T12:08:48.346Z,117.10
2022-12-01T12:09:48.499Z,117.60
2022-12-01T12:10:48.332Z,119.40
2022-12-01T12:11:48.254Z,121.80
2022-12-01T12:12:48.270Z,119.00
2022-12-01T12:13:48.234Z,121.50
2022-12-01T12:14:53.202Z,118.10
2022-12-01T12:15:53.282Z,118.30
2022-12-01T12:16:53.270Z,121.80
2022-12-01T12:17:53.376Z,113.10
2022-12-01T12:18:53.228Z,117.70
2022-12-01T12:20:07.773Z,114.40
2022-12-01T12:20:53.250Z,113.90
2022-12-01T12:21:53.253Z,119.70
2022-12-01T12:22:55.712Z,114.60
2022-12-01T12:23:53.281Z,121.90
2022-12-01T12:24:53.393Z,111.20
2022-12-01T12:25:53.351Z,113.40
2022-12-01T12:26:53.256Z,122.50
2022-12-01T12:27:58.150Z,119.70
2022-12-01T12:28:58.248Z,115.50
2022-12-01T12:29:58.238Z,121.20
2022-12-01T12:30:58.414Z,112.00
2022-12-01T12:31:58.277Z,116.20
2022-12-01T12:32:58.276Z,120.10
2022-12-01T12:33:58.243Z,115.40
2022-12-01T12:35:03.307Z,120.40
2022-12-01T12:36:03.384Z,123.70
2022-12-01T12:37:03.237Z,118.70